createdAt,value
2022-07-29T00:02:26.258Z,96.19
2022-07-29T00:04:52.849Z,94.82
2022-07-29T00:07:19.583Z,93.52
2022-07-29T00:09:50.852Z,93.43
2022-07-29T00:12:26.176Z,92.45
2022-07-29T00:14:54.868Z,94.01
2022-07-29T00:17:21.385Z,94.86
2022-07-29T00:19:47.826Z,94.62
2022-07-29T00:22:14.279Z,95.25
2022-07-29T00:24:40.739Z,95.82
2022-07-29T00:27:07.259Z,95.06
2022-07-29T00:29:34.869Z,94.62
2022-07-29T00:32:02.412Z,94.76
2022-07-29T00:34:47.637Z,94.56
2022-07-29T00:37:14.066Z,94.21
2022-07-29T00:39:40.462Z,93.40
2022-07-29T00:42:07.117Z,92.48
2022-07-29T00:44:40.657Z,92.77
2022-07-29T00:47:08.409Z,91.88
2022-07-29T00:49:35.863Z,92.11
2022-07-29T00:52:39.292Z,92.05
2022-07-29T00:55:08.829Z,92.47
2022-07-29T00:57:36.393Z,92.62
2022-07-29T01:00:07.752Z,93.24
2022-07-29T01:02:34.594Z,93.59
2022-07-29T01:05:02.243Z,93.43
2022-07-29T01:07:30.728Z,92.70
2022-07-29T01:09:57.858Z,92.12
2022-07-29T01:12:26.455Z,92.50
2022-07-29T01:14:54.833Z,92.68
2022-07-29T01:17:37.924Z,92.22
2022-07-29T01:20:11.310Z,93.13
2022-07-29T01:22:56.637Z,93.72
2022-07-29T01:25:44.777Z,93.67
2022-07-29T01:28:36.100Z,95.01
2022-07-29T01:31:05.358Z,95.01
2022-07-29T01:33:51.307Z,95.23
2022-07-29T01:36:28.319Z,95.05
2022-07-29T01:39:17.834Z,93.79
2022-07-29T01:42:25.437Z,92.70
2022-07-29T01:45:15.222Z,93.98
2022-07-29T01:47:47.721Z,93.88
2022-07-29T01:50:18.082Z,93.85
2022-07-29T01:52:57.415Z,94.26
2022-07-29T01:55:30.515Z,95.19
2022-07-29T01:57:59.874Z,95.93
2022-07-29T02:00:27.638Z,95.71
2022-07-29T02:02:55.604Z,95.47
2022-07-29T02:05:24.218Z,95.73
2022-07-29T02:07:53.825Z,94.87
2022-07-29T02:10:25.829Z,94.89
2022-07-29T02:12:54.922Z,95.24
2022-07-29T02:15:24.087Z,93.50
2022-07-29T02:17:55.063Z,92.76
2022-07-29T02:20:25.958Z,92.20
2022-07-29T02:22:53.995Z,92.12
2022-07-29T02:25:23.316Z,92.58
2022-07-29T02:27:52.358Z,93.80
2022-07-29T02:30:20.098Z,94.63
2022-07-29T02:32:49.315Z,95.22
2022-07-29T02:35:17.907Z,95.54
2022-07-29T02:37:45.793Z,94.42
2022-07-29T02:40:15.396Z,94.68
2022-07-29T02:42:45.069Z,94.60
2022-07-29T02:45:11.849Z,94.27
2022-07-29T02:47:44.568Z,93.52
2022-07-29T02:50:25.645Z,93.76
2022-07-29T02:53:04.259Z,93.60
2022-07-29T02:55:35.031Z,93.36
2022-07-29T02:58:14.787Z,92.88
2022-07-29T03:00:41.996Z,93.14
2022-07-29T03:03:15.893Z,93.13
2022-07-29T03:05:42.744Z,92.18
2022-07-29T03:08:12.358Z,91.96
2022-07-29T03:10:43.267Z,92.01
2022-07-29T03:13:11.146Z,92.46
2022-07-29T03:15:38.055Z,92.34
2022-07-29T03:18:06.340Z,91.74
2022-07-29T03:20:33.099Z,91.20
2022-07-29T03:22:59.700Z,90.60
2022-07-29T03:25:28.013Z,91.41
2022-07-29T03:27:54.459Z,91.62
2022-07-29T03:30:21.916Z,91.61
2022-07-29T03:32:50.067Z,91.63
2022-07-29T03:35:19.255Z,91.92
2022-07-29T03:37:45.995Z,91.99
2022-07-29T03:40:18.281Z,91.81
2022-07-29T03:42:46.662Z,91.31
2022-07-29T03:45:16.408Z,91.42
2022-07-29T03:47:50.963Z,91.04
2022-07-29T03:50:20.344Z,91.13
2022-07-29T03:52:47.645Z,91.17
2022-07-29T03:55:15.676Z,91.04
2022-07-29T03:57:43.110Z,91.02
2022-07-29T04:00:10.568Z,91.21
2022-07-29T04:02:40.926Z,90.66
2022-07-29T04:05:13.588Z,91.52
2022-07-29T04:07:40.933Z,92.64
2022-07-29T04:10:09.878Z,91.39
2022-07-29T04:12:37.397Z,90.14
2022-07-29T04:15:07.207Z,89.58
2022-07-29T04:17:34.559Z,91.48
2022-07-29T04:20:01.409Z,90.66
2022-07-29T04:22:27.923Z,91.64
2022-07-29T04:24:54.469Z,91.48
2022-07-29T04:27:21.089Z,91.59
2022-07-29T04:29:56.333Z,91.95
2022-07-29T04:32:25.110Z,91.84
2022-07-29T04:34:51.739Z,92.06
2022-07-29T04:37:18.314Z,91.48
2022-07-29T04:39:44.736Z,90.75
2022-07-29T04:42:11.178Z,92.15
2022-07-29T04:44:39.738Z,92.09
2022-07-29T04:47:09.801Z,92.73
2022-07-29T04:49:39.005Z,92.47
2022-07-29T04:52:06.194Z,92.85
2022-07-29T04:54:32.643Z,92.87
2022-07-29T04:56:59.079Z,92.90
2022-07-29T04:59:27.592Z,93.36
2022-07-29T05:01:54.133Z,94.40
2022-07-29T05:04:20.966Z,94.13
2022-07-29T05:06:47.672Z,93.96
2022-07-29T05:09:14.212Z,94.09
2022-07-29T05:11:40.675Z,94.51
2022-07-29T05:14:07.132Z,93.98
2022-07-29T05:16:34.425Z,94.24
2022-07-29T05:19:00.921Z,94.79
2022-07-29T05:21:27.374Z,93.79
2022-07-29T05:23:53.814Z,94.09
2022-07-29T05:26:20.271Z,94.23
2022-07-29T05:28:46.704Z,94.09
2022-07-29T05:31:15.462Z,94.14
2022-07-29T05:33:42.416Z,94.17
2022-07-29T05:36:08.942Z,94.01
2022-07-29T05:38:36.623Z,92.82
2022-07-29T05:41:03.729Z,93.08
2022-07-29T05:43:30.239Z,92.31
2022-07-29T05:45:57.281Z,92.67
2022-07-29T05:48:23.917Z,92.86
2022-07-29T05:50:50.352Z,92.42
2022-07-29T05:53:19.790Z,91.84
2022-07-29T05:55:48.110Z,91.99
2022-07-29T05:58:14.644Z,92.41
2022-07-29T06:00:41.328Z,91.38
2022-07-29T06:03:07.792Z,88.82
2022-07-29T06:05:34.243Z,88.26
2022-07-29T06:08:00.792Z,88.45
2022-07-29T06:10:27.828Z,84.90
2022-07-29T06:12:54.618Z,84.32
2022-07-29T06:15:21.115Z,84.56
2022-07-29T06:18:00.354Z,84.57
2022-07-29T06:20:31.101Z,83.14
2022-07-29T06:22:58.418Z,84.35
2022-07-29T06:25:24.867Z,84.19
2022-07-29T06:27:51.311Z,83.34
2022-07-29T06:30:17.817Z,84.40
2022-07-29T06:32:44.268Z,84.95
2022-07-29T06:35:37.862Z,85.44
2022-07-29T06:37:58.851Z,85.55
2022-07-29T06:40:45.328Z,85.75
2022-07-29T06:43:11.846Z,83.54
2022-07-29T06:45:42.185Z,84.01
2022-07-29T06:48:09.407Z,84.12
2022-07-29T06:50:35.856Z,82.49
2022-07-29T06:53:02.288Z,83.20
2022-07-29T06:55:28.717Z,84.09
2022-07-29T06:57:55.130Z,83.87
2022-07-29T07:00:21.591Z,84.90
2022-07-29T07:02:48.163Z,85.37
2022-07-29T07:05:14.690Z,85.51
2022-07-29T07:07:41.100Z,84.25
2022-07-29T07:10:08.046Z,83.76
2022-07-29T07:12:34.614Z,83.37
2022-07-29T07:15:01.119Z,83.68
2022-07-29T07:17:27.547Z,83.66
2022-07-29T07:19:54.149Z,83.68
2022-07-29T07:22:20.576Z,83.59
2022-07-29T07:24:46.983Z,82.92
2022-07-29T07:27:13.471Z,82.89
2022-07-29T07:29:42.061Z,82.74
2022-07-29T07:32:11.134Z,83.32
2022-07-29T07:34:38.930Z,82.83
2022-07-29T07:37:06.080Z,82.59
2022-07-29T07:39:32.626Z,82.80
2022-07-29T07:41:59.070Z,82.59
2022-07-29T07:44:25.484Z,82.34
2022-07-29T07:46:51.947Z,82.42
2022-07-29T07:49:18.729Z,82.03
2022-07-29T07:51:50.603Z,82.21
2022-07-29T07:54:20.767Z,82.44
2022-07-29T07:56:53.096Z,82.60
2022-07-29T07:59:20.128Z,83.28
2022-07-29T08:01:48.153Z,83.47
2022-07-29T08:04:28.078Z,84.31
2022-07-29T08:06:55.425Z,84.46
2022-07-29T08:09:29.199Z,84.82
2022-07-29T08:11:57.694Z,83.85
2022-07-29T08:14:24.153Z,79.91
2022-07-29T08:16:50.721Z,79.63
2022-07-29T08:19:17.236Z,80.43
2022-07-29T08:21:43.793Z,80.83
2022-07-29T08:24:28.567Z,79.78
2022-07-29T08:26:55.014Z,80.38
2022-07-29T08:29:21.458Z,80.17
2022-07-29T08:31:47.924Z,79.83
2022-07-29T08:34:15.353Z,79.89
2022-07-29T08:36:41.823Z,79.16
2022-07-29T08:39:08.291Z,79.01
2022-07-29T08:41:34.876Z,78.83
2022-07-29T08:44:01.337Z,77.17
2022-07-29T08:46:27.742Z,76.65
2022-07-29T08:48:55.339Z,76.42
2022-07-29T08:51:22.855Z,75.06
2022-07-29T08:53:51.186Z,76.42
2022-07-29T08:56:19.437Z,74.96
2022-07-29T08:58:52.056Z,75.32
2022-07-29T09:01:23.967Z,75.68
2022-07-29T09:04:08.746Z,74.96
2022-07-29T09:06:40.157Z,75.69
2022-07-29T09:09:08.805Z,76.37
2022-07-29T09:11:35.525Z,76.86
2022-07-29T09:14:02.137Z,69.88
2022-07-29T09:16:57.339Z,69.45
2022-07-29T09:19:26.528Z,68.87
2022-07-29T09:21:59.357Z,70.47
2022-07-29T09:24:48.252Z,68.78
2022-07-29T09:27:26.997Z,67.24
2022-07-29T09:29:58.706Z,66.82
2022-07-29T09:32:25.484Z,67.75
2022-07-29T09:34:54.625Z,66.85
2022-07-29T09:37:29.488Z,64.85
2022-07-29T09:39:55.968Z,67.08
2022-07-29T09:42:30.837Z,66.55
2022-07-29T09:44:57.460Z,63.57
2022-07-29T09:47:41.944Z,65.69
2022-07-29T09:50:08.863Z,67.57
2022-07-29T09:52:46.627Z,60.90
2022-07-29T09:55:17.825Z,62.82
2022-07-29T09:57:45.779Z,62.86
2022-07-29T10:00:14.563Z,61.56
2022-07-29T10:02:44.851Z,62.22
2022-07-29T10:05:22.272Z,60.21
2022-07-29T10:07:53.984Z,59.40
2022-07-29T10:10:23.852Z,58.19
2022-07-29T10:12:56.857Z,56.69
2022-07-29T10:15:27.382Z,57.86
2022-07-29T10:17:55.773Z,56.53
2022-07-29T10:20:23.901Z,57.92
2022-07-29T10:22:53.947Z,54.19
2022-07-29T10:25:21.541Z,54.49
2022-07-29T10:27:49.617Z,55.45
2022-07-29T10:30:17.345Z,55.08
2022-07-29T10:32:55.868Z,57.12
2022-07-29T10:35:46.171Z,52.33
2022-07-29T10:38:38.866Z,55.04
2022-07-29T10:41:31.925Z,55.90
2022-07-29T10:44:14.747Z,55.04
2022-07-29T10:46:44.909Z,55.49
2022-07-29T10:49:25.043Z,56.95
2022-07-29T10:51:54.308Z,55.05
2022-07-29T10:54:36.301Z,54.54
2022-07-29T10:57:21.332Z,56.34
2022-07-29T10:59:50.363Z,55.75
2022-07-29T11:02:41.892Z,54.61
2022-07-29T11:05:16.492Z,55.21
2022-07-29T11:08:16.190Z,57.43
2022-07-29T11:10:47.780Z,56.67
2022-07-29T11:13:44.145Z,57.42
2022-07-29T11:16:10.722Z,58.75
2022-07-29T11:19:06.068Z,58.82
2022-07-29T11:21:55.153Z,59.53
2022-07-29T11:24:32.354Z,57.80
2022-07-29T11:27:20.200Z,56.57
2022-07-29T11:29:51.411Z,56.28
2022-07-29T11:32:23.373Z,58.20
2022-07-29T11:35:17.235Z,55.11
2022-07-29T11:37:52.184Z,55.71
2022-07-29T11:40:22.911Z,56.86
2022-07-29T11:45:47.903Z,57.87
2022-07-29T11:51:10.966Z,55.26
2022-07-29T11:53:40.437Z,56.36
2022-07-29T11:56:09.667Z,57.24
2022-07-29T11:58:38.282Z,55.62
2022-07-29T12:01:06.240Z,56.59
2022-07-29T12:03:35.733Z,56.53
2022-07-29T12:06:11.813Z,55.55
2022-07-29T12:07:02.107Z,57.02
2022-07-29T12:07:03.977Z,57.70
2022-07-29T12:08:44.319Z,53.48
2022-07-29T12:11:22.602Z,53.57
2022-07-29T12:13:51.628Z,51.94
2022-07-29T12:16:29.251Z,54.18
2022-07-29T12:18:57.716Z,52.83
2022-07-29T12:21:25.757Z,53.96
2022-07-29T12:23:57.741Z,52.81
2022-07-29T12:26:28.488Z,52.59
2022-07-29T12:28:55.544Z,52.84
2022-07-29T12:31:43.828Z,44.88
2022-07-29T12:34:10.426Z,49.07
2022-07-29T12:36:37.274Z,49.55
2022-07-29T12:39:04.884Z,46.65
2022-07-29T12:41:31.804Z,48.28
2022-07-29T12:43:59.321Z,44.98
2022-07-29T12:46:25.913Z,44.59
2022-07-29T12:48:57.519Z,46.98
2022-07-29T12:51:32.019Z,43.82
2022-07-29T12:54:06.514Z,47.12
2022-07-29T12:56:43.194Z,47.43
2022-07-29T12:59:22.242Z,49.50
2022-07-29T13:01:53.230Z,52.10
2022-07-29T13:04:26.844Z,51.41
2022-07-29T13:07:01.822Z,50.60
2022-07-29T13:09:42.123Z,54.48
2022-07-29T13:12:11.035Z,57.08
2022-07-29T13:14:45.977Z,57.07
2022-07-29T13:17:28.596Z,59.70
2022-07-29T13:20:15.730Z,58.71
2022-07-29T13:22:43.475Z,57.71
2022-07-29T13:25:10.607Z,55.32
2022-07-29T13:27:40.342Z,55.14
2022-07-29T13:30:09.344Z,54.03
2022-07-29T13:32:37.226Z,53.68
2022-07-29T13:35:06.815Z,55.34
2022-07-29T13:37:35.811Z,56.15
2022-07-29T13:40:04.140Z,54.14
2022-07-29T13:42:31.332Z,54.43
2022-07-29T13:44:57.801Z,54.93
2022-07-29T13:47:32.648Z,52.43
2022-07-29T13:50:03.098Z,52.93
2022-07-29T13:52:30.027Z,52.54
2022-07-29T13:54:57.093Z,51.46
2022-07-29T13:57:23.546Z,53.05
2022-07-29T13:59:54.158Z,52.47
2022-07-29T14:02:25.420Z,53.86
2022-07-29T14:04:55.414Z,53.69
2022-07-29T14:07:22.587Z,54.69
2022-07-29T14:09:49.015Z,53.27
2022-07-29T14:12:17.660Z,53.62
2022-07-29T14:14:44.887Z,54.46
2022-07-29T14:17:14.359Z,51.27
2022-07-29T14:19:42.423Z,51.42
2022-07-29T14:22:11.019Z,53.03
2022-07-29T14:24:38.239Z,52.54
2022-07-29T14:27:08.015Z,51.18
2022-07-29T14:29:37.171Z,51.65
2022-07-29T14:32:06.052Z,51.74
2022-07-29T14:34:34.353Z,51.79
2022-07-29T14:37:06.939Z,51.15
2022-07-29T14:39:36.083Z,51.88
2022-07-29T14:42:07.155Z,52.96
2022-07-29T14:44:33.626Z,51.72
2022-07-29T14:47:00.878Z,52.72
2022-07-29T14:49:28.099Z,54.03
2022-07-29T14:51:55.016Z,54.22
2022-07-29T14:54:22.803Z,55.49
2022-07-29T14:56:51.747Z,55.61
2022-07-29T14:59:18.236Z,56.61
2022-07-29T15:01:44.630Z,57.11
2022-07-29T15:04:11.100Z,56.61
2022-07-29T15:06:38.798Z,55.84
2022-07-29T15:09:05.519Z,55.39
2022-07-29T15:11:31.930Z,52.99
2022-07-29T15:14:04.340Z,53.40
2022-07-29T15:16:30.974Z,53.60
2022-07-29T15:18:58.672Z,53.65
2022-07-29T15:21:28.783Z,53.71
2022-07-29T15:23:55.400Z,55.61
2022-07-29T15:26:22.428Z,55.44
2022-07-29T15:28:49.088Z,54.90
2022-07-29T15:31:15.729Z,54.02
2022-07-29T15:33:42.231Z,55.04
2022-07-29T15:36:08.835Z,56.50
2022-07-29T15:38:35.270Z,56.04
2022-07-29T15:41:08.366Z,56.55
2022-07-29T15:43:36.135Z,57.20
2022-07-29T15:46:21.269Z,58.45
2022-07-29T15:48:47.801Z,58.79
2022-07-29T15:51:15.230Z,59.97
2022-07-29T15:53:41.715Z,59.87
2022-07-29T15:56:08.186Z,60.76
2022-07-29T15:58:34.607Z,61.23
2022-07-29T16:01:01.068Z,60.82
2022-07-29T16:03:27.543Z,60.15
2022-07-29T16:05:53.967Z,60.01
2022-07-29T16:08:20.384Z,60.32
2022-07-29T16:10:46.803Z,60.03
2022-07-29T16:13:17.108Z,60.21
2022-07-29T16:16:01.997Z,60.58
2022-07-29T16:18:30.829Z,60.93
2022-07-29T16:20:57.652Z,60.30
2022-07-29T16:23:24.713Z,60.22
2022-07-29T16:25:59.790Z,59.23
2022-07-29T16:28:28.124Z,58.56
2022-07-29T16:30:54.661Z,59.43
2022-07-29T16:33:24.551Z,62.39
2022-07-29T16:35:51.568Z,64.32
2022-07-29T16:38:18.496Z,66.95
2022-07-29T16:40:45.068Z,67.44
2022-07-29T16:43:11.496Z,65.78
2022-07-29T16:45:46.026Z,66.66
2022-07-29T16:48:17.325Z,68.05
2022-07-29T16:50:45.486Z,70.92
2022-07-29T16:53:12.996Z,72.98
2022-07-29T16:55:42.028Z,74.69
2022-07-29T16:58:09.203Z,75.88
2022-07-29T17:00:35.810Z,77.63
2022-07-29T17:03:02.348Z,78.88
2022-07-29T17:05:29.038Z,80.35
2022-07-29T17:07:56.090Z,80.31
2022-07-29T17:10:22.651Z,80.18
2022-07-29T17:12:49.329Z,78.64
2022-07-29T17:15:18.474Z,79.28
2022-07-29T17:17:55.024Z,80.02
2022-07-29T17:20:23.044Z,81.13
2022-07-29T17:22:49.662Z,80.63
2022-07-29T17:25:21.006Z,81.28
2022-07-29T17:27:49.586Z,83.52
2022-07-29T17:30:16.431Z,83.16
2022-07-29T17:32:42.941Z,85.01
2022-07-29T17:35:28.763Z,84.44
2022-07-29T17:37:55.208Z,83.13
2022-07-29T17:40:24.139Z,84.37
2022-07-29T17:42:50.737Z,84.25
2022-07-29T17:45:17.330Z,85.02
2022-07-29T17:47:44.980Z,86.51
2022-07-29T17:50:12.533Z,87.79
2022-07-29T17:52:40.696Z,87.43
2022-07-29T17:55:07.988Z,88.14
2022-07-29T17:57:34.491Z,88.25
2022-07-29T18:00:04.622Z,88.59
2022-07-29T18:02:37.326Z,90.24
2022-07-29T18:05:04.743Z,90.33
2022-07-29T18:07:31.200Z,92.30
2022-07-29T18:10:00.569Z,91.07
2022-07-29T18:12:27.372Z,91.28
2022-07-29T18:14:53.782Z,91.02
2022-07-29T18:17:23.378Z,90.91
2022-07-29T18:20:10.704Z,90.27
2022-07-29T18:22:37.319Z,88.77
2022-07-29T18:25:04.005Z,89.10
2022-07-29T18:27:30.595Z,88.52
2022-07-29T18:29:57.086Z,89.38
2022-07-29T18:32:31.154Z,90.07
2022-07-29T18:34:57.626Z,90.35
2022-07-29T18:38:00.915Z,89.88
2022-07-29T18:40:11.331Z,90.06
2022-07-29T18:42:41.126Z,90.14
2022-07-29T18:45:19.010Z,89.60
2022-07-29T18:47:47.556Z,89.72
2022-07-29T18:50:14.731Z,89.85
2022-07-29T18:52:41.761Z,90.05
2022-07-29T18:55:08.841Z,90.44
2022-07-29T18:57:54.704Z,90.37
2022-07-29T19:00:22.510Z,90.57
2022-07-29T19:02:49.933Z,90.94
2022-07-29T19:05:16.588Z,90.70
2022-07-29T19:07:43.138Z,90.54
2022-07-29T19:10:11.216Z,91.38
2022-07-29T19:12:37.874Z,90.53
2022-07-29T19:15:04.628Z,90.82
2022-07-29T19:17:31.081Z,90.00
2022-07-29T19:19:57.567Z,89.41
2022-07-29T19:22:24.261Z,90.64
2022-07-29T19:24:50.787Z,91.73
2022-07-29T19:27:18.344Z,91.93
2022-07-29T19:29:44.759Z,91.88
2022-07-29T19:32:11.524Z,91.71
2022-07-29T19:34:38.297Z,93.17
2022-07-29T19:37:05.266Z,93.17
2022-07-29T19:39:35.489Z,93.66
2022-07-29T19:42:03.415Z,92.51
2022-07-29T19:44:30.296Z,91.77
2022-07-29T19:46:57.023Z,92.27
2022-07-29T19:49:23.937Z,91.03
2022-07-29T19:51:50.501Z,91.04
2022-07-29T19:54:20.333Z,90.76
2022-07-29T19:56:46.750Z,91.74
2022-07-29T19:59:13.184Z,92.77
2022-07-29T20:01:39.792Z,93.03
2022-07-29T20:04:06.336Z,93.15
2022-07-29T20:06:32.918Z,92.45
2022-07-29T20:08:59.344Z,92.26
2022-07-29T20:11:26.526Z,91.55
2022-07-29T20:13:52.974Z,90.43
2022-07-29T20:16:19.548Z,89.98
2022-07-29T20:18:46.127Z,89.74
2022-07-29T20:21:12.579Z,89.38
2022-07-29T20:23:39.044Z,89.62
2022-07-29T20:26:09.260Z,89.66
2022-07-29T20:28:35.932Z,89.33
2022-07-29T20:31:02.521Z,89.48
2022-07-29T20:33:29.059Z,89.41
2022-07-29T20:35:55.566Z,90.04
2022-07-29T20:38:22.057Z,91.00
2022-07-29T20:40:48.537Z,90.11
2022-07-29T20:43:15.181Z,90.46
2022-07-29T20:45:41.624Z,88.17
2022-07-29T20:48:08.569Z,87.87
2022-07-29T20:50:35.048Z,87.17
2022-07-29T20:53:01.538Z,86.84
2022-07-29T20:55:27.990Z,87.68
2022-07-29T20:57:54.481Z,87.96
2022-07-29T21:00:20.906Z,87.63
2022-07-29T21:02:47.617Z,87.81
2022-07-29T21:05:14.427Z,87.51
2022-07-29T21:07:40.912Z,87.79
2022-07-29T21:10:07.797Z,88.74
2022-07-29T21:12:34.242Z,88.85
2022-07-29T21:15:05.197Z,88.10
2022-07-29T21:17:38.883Z,86.62
2022-07-29T21:20:08.468Z,87.48
2022-07-29T21:22:34.917Z,88.93
2022-07-29T21:25:01.631Z,88.53
2022-07-29T21:27:49.072Z,89.58
2022-07-29T21:30:15.492Z,89.47
2022-07-29T21:32:41.967Z,89.61
2022-07-29T21:35:18.309Z,89.39
2022-07-29T21:37:55.180Z,91.40
2022-07-29T21:40:21.755Z,91.06
2022-07-29T21:42:48.195Z,91.50
2022-07-29T21:45:16.259Z,91.27
2022-07-29T21:47:42.714Z,90.45
2022-07-29T21:50:09.430Z,88.85
2022-07-29T21:52:35.848Z,89.47
2022-07-29T21:55:04.048Z,89.90
2022-07-29T21:57:30.618Z,89.53
2022-07-29T22:00:02.192Z,89.16
2022-07-29T22:02:32.349Z,89.27
2022-07-29T22:04:58.770Z,89.85
2022-07-29T22:07:25.173Z,91.99
2022-07-29T22:10:11.627Z,91.64
2022-07-29T22:12:38.344Z,91.13
2022-07-29T22:15:05.155Z,90.98
2022-07-29T22:17:31.586Z,90.97
2022-07-29T22:19:58.701Z,91.28
2022-07-29T22:22:25.218Z,90.95
2022-07-29T22:24:51.788Z,91.19
2022-07-29T22:27:18.385Z,91.38
2022-07-29T22:29:44.784Z,90.66
2022-07-29T22:32:11.253Z,91.18
2022-07-29T22:34:37.981Z,91.04
2022-07-29T22:37:05.413Z,90.04
2022-07-29T22:39:31.834Z,90.31
2022-07-29T22:41:58.260Z,90.29
2022-07-29T22:44:24.688Z,89.74
2022-07-29T22:46:51.103Z,90.27
2022-07-29T22:49:17.580Z,90.95
2022-07-29T22:51:44.106Z,90.65
2022-07-29T22:54:10.540Z,91.02
2022-07-29T22:56:36.993Z,90.93
2022-07-29T22:59:03.586Z,91.21
2022-07-29T23:01:37.627Z,90.75
2022-07-29T23:04:05.271Z,90.08
2022-07-29T23:06:31.724Z,89.55
2022-07-29T23:08:58.191Z,89.97
2022-07-29T23:11:24.805Z,90.58
2022-07-29T23:13:51.206Z,89.91
2022-07-29T23:16:26.786Z,89.09
2022-07-29T23:18:53.853Z,89.71
2022-07-29T23:21:20.912Z,89.67
2022-07-29T23:23:48.637Z,90.14
2022-07-29T23:26:16.873Z,90.03
2022-07-29T23:28:44.751Z,88.72
2022-07-29T23:31:11.638Z,88.86
2022-07-29T23:33:38.147Z,89.48
2022-07-29T23:36:04.603Z,88.51
2022-07-29T23:38:31.191Z,89.74
2022-07-29T23:40:58.694Z,89.16
2022-07-29T23:43:25.171Z,90.61
2022-07-29T23:45:51.664Z,90.10
2022-07-29T23:48:20.762Z,89.77
2022-07-29T23:50:47.383Z,90.06
2022-07-29T23:53:13.852Z,90.13
2022-07-29T23:55:40.392Z,89.99
2022-07-29T23:58:06.900Z,89.81
